sensor_id;sensor_type;location;lat;lon;timestamp;pressure;altitude;pressure_sealevel;temperature;humidity
57990;BME280;58373;51.824;5.564;2023-08-24T00:01:46;101740.38;;;18.16;80.83
57990;BME280;58373;51.824;5.564;2023-08-24T00:04:11;101746.63;;;18.15;80.88
57990;BME280;58373;51.824;5.564;2023-08-24T00:06:36;101746.09;;;18.11;80.88
57990;BME280;58373;51.824;5.564;2023-08-24T00:09:02;101744.88;;;18.05;81.16
57990;BME280;58373;51.824;5.564;2023-08-24T00:11:29;101739.97;;;18.02;81.23
57990;BME280;58373;51.824;5.564;2023-08-24T00:13:55;101729.47;;;18.02;81.34
57990;BME280;58373;51.824;5.564;2023-08-24T00:16:21;101719.25;;;17.99;81.36
57990;BME280;58373;51.824;5.564;2023-08-24T00:18:46;101715.78;;;17.99;81.31
57990;BME280;58373;51.824;5.564;2023-08-24T00:21:13;101722.31;;;17.95;81.80
57990;BME280;58373;51.824;5.564;2023-08-24T00:23:38;101726.09;;;17.92;81.88
57990;BME280;58373;51.824;5.564;2023-08-24T00:26:03;101723.47;;;17.92;81.92
57990;BME280;58373;51.824;5.564;2023-08-24T00:28:29;101721.81;;;17.91;81.81
57990;BME280;58373;51.824;5.564;2023-08-24T00:30:54;101727.34;;;17.88;82.13
57990;BME280;58373;51.824;5.564;2023-08-24T00:33:19;101736.22;;;17.87;82.09
57990;BME280;58373;51.824;5.564;2023-08-24T00:35:44;101739.16;;;17.84;82.39
57990;BME280;58373;51.824;5.564;2023-08-24T00:38:10;101731.28;;;17.84;82.54
57990;BME280;58373;51.824;5.564;2023-08-24T00:40:35;101735.53;;;17.85;82.64
57990;BME280;58373;51.824;5.564;2023-08-24T00:43:00;101736.53;;;17.84;82.58
57990;BME280;58373;51.824;5.564;2023-08-24T00:45:25;101732.22;;;17.83;82.72
57990;BME280;58373;51.824;5.564;2023-08-24T00:47:51;101735.69;;;17.84;83.03
57990;BME280;58373;51.824;5.564;2023-08-24T00:50:17;101731.28;;;17.84;82.98
57990;BME280;58373;51.824;5.564;2023-08-24T00:52:42;101724.88;;;17.87;83.33
57990;BME280;58373;51.824;5.564;2023-08-24T00:55:08;101729.31;;;17.86;83.33
57990;BME280;58373;51.824;5.564;2023-08-24T00:57:34;101720.09;;;17.82;83.28
57990;BME280;58373;51.824;5.564;2023-08-24T01:00:02;101727.97;;;17.82;83.32
57990;BME280;58373;51.824;5.564;2023-08-24T01:02:27;101724.66;;;17.80;83.09
57990;BME280;58373;51.824;5.564;2023-08-24T01:04:53;101710.88;;;17.78;83.06
57990;BME280;58373;51.824;5.564;2023-08-24T01:07:18;101716.41;;;17.75;83.19
57990;BME280;58373;51.824;5.564;2023-08-24T01:09:43;101720.28;;;17.71;84.27
57990;BME280;58373;51.824;5.564;2023-08-24T01:17:24;101706.44;;;17.61;83.81
57990;BME280;58373;51.824;5.564;2023-08-24T01:19:52;101715.25;;;17.60;83.58
57990;BME280;58373;51.824;5.564;2023-08-24T01:22:27;101704.09;;;17.58;84.07
57990;BME280;58373;51.824;5.564;2023-08-24T01:27:33;101698.31;;;17.54;84.38
57990;BME280;58373;51.824;5.564;2023-08-24T01:30:00;101694.19;;;17.51;84.22
57990;BME280;58373;51.824;5.564;2023-08-24T01:32:25;101684.81;;;17.49;84.84
57990;BME280;58373;51.824;5.564;2023-08-24T01:34:51;101691.19;;;17.46;84.55
57990;BME280;58373;51.824;5.564;2023-08-24T01:37:16;101682.34;;;17.47;84.86
57990;BME280;58373;51.824;5.564;2023-08-24T01:39:54;101671.84;;;17.47;85.30
57990;BME280;58373;51.824;5.564;2023-08-24T01:42:21;101682.34;;;17.47;85.21
57990;BME280;58373;51.824;5.564;2023-08-24T01:44:52;101690.91;;;17.49;85.59
57990;BME280;58373;51.824;5.564;2023-08-24T01:47:21;101699.06;;;17.46;85.77
57990;BME280;58373;51.824;5.564;2023-08-24T01:49:46;101699.88;;;17.47;85.41
57990;BME280;58373;51.824;5.564;2023-08-24T01:52:12;101699.72;;;17.48;84.93
57990;BME280;58373;51.824;5.564;2023-08-24T01:54:37;101699.44;;;17.51;85.61
57990;BME280;58373;51.824;5.564;2023-08-24T01:57:04;101710.09;;;17.50;85.81
57990;BME280;58373;51.824;5.564;2023-08-24T01:59:29;101714.38;;;17.51;85.84
57990;BME280;58373;51.824;5.564;2023-08-24T02:01:54;101716.81;;;17.52;85.66
57990;BME280;58373;51.824;5.564;2023-08-24T02:04:19;101727.03;;;17.56;85.77
57990;BME280;58373;51.824;5.564;2023-08-24T02:06:45;101728.69;;;17.57;85.38
57990;BME280;58373;51.824;5.564;2023-08-24T02:09:10;101714.88;;;17.55;85.34
57990;BME280;58373;51.824;5.564;2023-08-24T02:11:35;101704.25;;;17.56;85.67
57990;BME280;58373;51.824;5.564;2023-08-24T02:14:00;101701.31;;;17.59;85.98
57990;BME280;58373;51.824;5.564;2023-08-24T02:16:25;101705.44;;;17.62;86.68
57990;BME280;58373;51.824;5.564;2023-08-24T02:18:51;101709.06;;;17.61;86.02
57990;BME280;58373;51.824;5.564;2023-08-24T02:21:16;101709.88;;;17.61;86.29
57990;BME280;58373;51.824;5.564;2023-08-24T02:23:41;101703.81;;;17.61;86.59
57990;BME280;58373;51.824;5.564;2023-08-24T02:26:06;101710.69;;;17.62;86.93
57990;BME280;58373;51.824;5.564;2023-08-24T02:28:32;101717.59;;;17.63;86.58
57990;BME280;58373;51.824;5.564;2023-08-24T02:31:01;101705.13;;;17.65;86.56
57990;BME280;58373;51.824;5.564;2023-08-24T02:33:27;101691.03;;;17.66;86.69
57990;BME280;58373;51.824;5.564;2023-08-24T02:35:52;101686.47;;;17.68;86.82
57990;BME280;58373;51.824;5.564;2023-08-24T02:38:17;101679.97;;;17.72;87.23
57990;BME280;58373;51.824;5.564;2023-08-24T02:40:42;101693.38;;;17.69;87.38
57990;BME280;58373;51.824;5.564;2023-08-24T02:43:08;101687.47;;;17.67;87.35
57990;BME280;58373;51.824;5.564;2023-08-24T02:45:33;101680.25;;;17.69;87.64
57990;BME280;58373;51.824;5.564;2023-08-24T02:47:58;101678.28;;;17.71;88.15
57990;BME280;58373;51.824;5.564;2023-08-24T02:50:23;101678.28;;;17.71;88.31
57990;BME280;58373;51.824;5.564;2023-08-24T02:52:48;101662.56;;;17.71;88.36
57990;BME280;58373;51.824;5.564;2023-08-24T02:55:14;101653.84;;;17.70;88.22
57990;BME280;58373;51.824;5.564;2023-08-24T02:57:41;101646.81;;;17.71;88.49
57990;BME280;58373;51.824;5.564;2023-08-24T03:00:06;101624.19;;;17.70;88.74
57990;BME280;58373;51.824;5.564;2023-08-24T03:02:31;101613.19;;;17.66;88.72
57990;BME280;58373;51.824;5.564;2023-08-24T03:04:57;101581.78;;;17.57;89.22
57990;BME280;58373;51.824;5.564;2023-08-24T03:07:22;101578.78;;;17.51;89.93
57990;BME280;58373;51.824;5.564;2023-08-24T03:09:47;101580.22;;;17.46;89.99
57990;BME280;58373;51.824;5.564;2023-08-24T03:12:12;101578.88;;;17.42;90.10
57990;BME280;58373;51.824;5.564;2023-08-24T03:14:37;101581.38;;;17.43;89.96
57990;BME280;58373;51.824;5.564;2023-08-24T03:17:03;101587.09;;;17.47;89.92
57990;BME280;58373;51.824;5.564;2023-08-24T03:19:29;101577.59;;;17.46;90.01
57990;BME280;58373;51.824;5.564;2023-08-24T03:21:54;101571.53;;;17.45;90.41
57990;BME280;58373;51.824;5.564;2023-08-24T03:24:19;101560.72;;;17.48;90.42
57990;BME280;58373;51.824;5.564;2023-08-24T03:26:45;101559.78;;;17.49;89.82
57990;BME280;58373;51.824;5.564;2023-08-24T03:29:10;101556.16;;;17.50;90.98
57990;BME280;58373;51.824;5.564;2023-08-24T03:31:35;101556.16;;;17.50;91.48
57990;BME280;58373;51.824;5.564;2023-08-24T03:34:00;101557.81;;;17.51;91.67
57990;BME280;58373;51.824;5.564;2023-08-24T03:36:25;101554.19;;;17.52;92.22
57990;BME280;58373;51.824;5.564;2023-08-24T03:38:51;101552.03;;;17.48;91.57
57990;BME280;58373;51.824;5.564;2023-08-24T03:41:16;101568.91;;;17.45;91.53
57990;BME280;58373;51.824;5.564;2023-08-24T03:43:41;101568.09;;;17.45;91.70
57990;BME280;58373;51.824;5.564;2023-08-24T03:46:06;101571.00;;;17.42;91.47
57990;BME280;58373;51.824;5.564;2023-08-24T03:48:32;101572.50;;;17.44;91.78
57990;BME280;58373;51.824;5.564;2023-08-24T03:50:57;101567.28;;;17.44;91.98
57990;BME280;58373;51.824;5.564;2023-08-24T03:53:23;101563.66;;;17.45;92.06
57990;BME280;58373;51.824;5.564;2023-08-24T03:55:48;101556.47;;;17.47;92.11
57990;BME280;58373;51.824;5.564;2023-08-24T03:58:14;101559.78;;;17.49;92.85
57990;BME280;58373;51.824;5.564;2023-08-24T04:00:39;101554.53;;;17.49;92.20
57990;BME280;58373;51.824;5.564;2023-08-24T04:03:05;101547.59;;;17.48;92.30
57990;BME280;58373;51.824;5.564;2023-08-24T04:05:31;101554.81;;;17.46;92.00
57990;BME280;58373;51.824;5.564;2023-08-24T04:07:56;101553.47;;;17.42;92.27
57990;BME280;58373;51.824;5.564;2023-08-24T04:10:21;101543.28;;;17.39;92.10
57990;BME280;58373;51.824;5.564;2023-08-24T04:12:46;101529.50;;;17.37;92.24
57990;BME280;58373;51.824;5.564;2023-08-24T04:15:12;101533.41;;;17.33;92.20
57990;BME280;58373;51.824;5.564;2023-08-24T04:17:37;101531.78;;;17.32;92.58
57990;BME280;58373;51.824;5.564;2023-08-24T04:20:02;101524.34;;;17.28;93.19
57990;BME280;58373;51.824;5.564;2023-08-24T04:22:31;101508.63;;;17.28;93.08
57990;BME280;58373;51.824;5.564;2023-08-24T04:24:56;101514.00;;;17.26;93.16
57990;BME280;58373;51.824;5.564;2023-08-24T04:27:21;101511.38;;;17.26;92.99
57990;BME280;58373;51.824;5.564;2023-08-24T04:29:47;101520.22;;;17.25;93.77
57990;BME280;58373;51.824;5.564;2023-08-24T04:32:12;101516.78;;;17.24;93.72
57990;BME280;58373;51.824;5.564;2023-08-24T04:34:37;101516.13;;;17.22;93.71
57990;BME280;58373;51.824;5.564;2023-08-24T04:37:02;101512.84;;;17.20;93.64
57990;BME280;58373;51.824;5.564;2023-08-24T04:39:28;101524.16;;;17.21;93.68
57990;BME280;58373;51.824;5.564;2023-08-24T04:41:54;101532.00;;;17.21;93.59
57990;BME280;58373;51.824;5.564;2023-08-24T04:44:19;101523.44;;;17.19;93.63
57990;BME280;58373;51.824;5.564;2023-08-24T04:46:44;101522.78;;;17.17;94.27
57990;BME280;58373;51.824;5.564;2023-08-24T04:49:10;101527.72;;;17.20;94.15
57990;BME280;58373;51.824;5.564;2023-08-24T04:51:35;101529.38;;;17.21;94.20
57990;BME280;58373;51.824;5.564;2023-08-24T04:54:00;101525.78;;;17.22;94.57
57990;BME280;58373;51.824;5.564;2023-08-24T04:56:25;101529.06;;;17.24;94.30
57990;BME280;58373;51.824;5.564;2023-08-24T04:58:56;101524.47;;;17.26;94.45
57990;BME280;58373;51.824;5.564;2023-08-24T05:01:22;101528.78;;;17.27;94.69
57990;BME280;58373;51.824;5.564;2023-08-24T05:03:47;101535.66;;;17.28;94.60
57990;BME280;58373;51.824;5.564;2023-08-24T05:06:13;101535.94;;;17.25;94.62
57990;BME280;58373;51.824;5.564;2023-08-24T05:08:38;101535.28;;;17.23;94.71
57990;BME280;58373;51.824;5.564;2023-08-24T05:11:21;101534.31;;;17.24;94.68
57990;BME280;58373;51.824;5.564;2023-08-24T05:13:47;101533.66;;;17.22;94.74
57990;BME280;58373;51.824;5.564;2023-08-24T05:16:12;101535.94;;;17.25;94.74
57990;BME280;58373;51.824;5.564;2023-08-24T05:18:38;101528.78;;;17.27;95.01
57990;BME280;58373;51.824;5.564;2023-08-24T05:21:03;101525.19;;;17.28;95.50
57990;BME280;58373;51.824;5.564;2023-08-24T05:23:32;101523.53;;;17.27;95.26
57990;BME280;58373;51.824;5.564;2023-08-24T05:25:57;101530.72;;;17.25;95.35
57990;BME280;58373;51.824;5.564;2023-08-24T05:28:26;101529.59;;;17.28;95.23
57990;BME280;58373;51.824;5.564;2023-08-24T05:30:52;101528.63;;;17.29;95.27
57990;BME280;58373;51.824;5.564;2023-08-24T05:33:17;101530.63;;;17.35;95.63
57990;BME280;58373;51.824;5.564;2023-08-24T05:35:43;101528.53;;;17.38;95.88
57990;BME280;58373;51.824;5.564;2023-08-24T05:38:08;101524.63;;;17.42;95.72
57990;BME280;58373;51.824;5.564;2023-08-24T05:40:33;101519.06;;;17.45;95.59
57990;BME280;58373;51.824;5.564;2023-08-24T05:42:59;101516.13;;;17.48;95.75
57990;BME280;58373;51.824;5.564;2023-08-24T05:45:24;101511.41;;;17.52;95.85
57990;BME280;58373;51.824;5.564;2023-08-24T05:47:49;101511.94;;;17.56;95.83
57990;BME280;58373;51.824;5.564;2023-08-24T05:50:15;101514.25;;;17.59;96.21
57990;BME280;58373;51.824;5.564;2023-08-24T05:52:40;101502.78;;;17.60;96.16
57990;BME280;58373;51.824;5.564;2023-08-24T05:55:05;101500.00;;;17.61;96.33
57990;BME280;58373;51.824;5.564;2023-08-24T05:57:30;101490.34;;;17.62;96.16
57990;BME280;58373;51.824;5.564;2023-08-24T05:59:55;101486.72;;;17.63;96.66
57990;BME280;58373;51.824;5.564;2023-08-24T06:02:21;101484.75;;;17.65;96.61
57990;BME280;58373;51.824;5.564;2023-08-24T06:04:46;101483.50;;;17.69;96.30
57990;BME280;58373;51.824;5.564;2023-08-24T06:07:11;101476.16;;;17.72;96.08
57990;BME280;58373;51.824;5.564;2023-08-24T06:09:36;101469.78;;;17.75;97.91
57990;BME280;58373;51.824;5.564;2023-08-24T06:12:02;101466.00;;;17.77;96.57
57990;BME280;58373;51.824;5.564;2023-08-24T06:14:27;101460.63;;;17.79;96.79
57990;BME280;58373;51.824;5.564;2023-08-24T06:16:52;101451.44;;;17.83;96.75
57990;BME280;58373;51.824;5.564;2023-08-24T06:19:18;101447.53;;;17.87;96.33
57990;BME280;58373;51.824;5.564;2023-08-24T06:21:43;101449.53;;;17.93;96.59
57990;BME280;58373;51.824;5.564;2023-08-24T06:24:08;101441.00;;;17.99;96.56
57990;BME280;58373;51.824;5.564;2023-08-24T06:26:34;101442.19;;;18.05;96.89
57990;BME280;58373;51.824;5.564;2023-08-24T06:28:59;101446.13;;;18.09;96.62
57990;BME280;58373;51.824;5.564;2023-08-24T06:31:24;101455.19;;;18.15;96.80
57990;BME280;58373;51.824;5.564;2023-08-24T06:33:49;101458.16;;;18.20;96.52
57990;BME280;58373;51.824;5.564;2023-08-24T06:36:15;101462.75;;;18.26;96.38
57990;BME280;58373;51.824;5.564;2023-08-24T06:38:40;101468.38;;;18.31;96.27
57990;BME280;58373;51.824;5.564;2023-08-24T06:41:05;101463.47;;;18.36;96.65
57990;BME280;58373;51.824;5.564;2023-08-24T06:43:30;101466.44;;;18.41;96.35
57990;BME280;58373;51.824;5.564;2023-08-24T06:45:56;101472.97;;;18.45;95.86
57990;BME280;58373;51.824;5.564;2023-08-24T06:48:21;101460.88;;;18.52;95.74
57990;BME280;58373;51.824;5.564;2023-08-24T06:50:46;101454.97;;;18.58;95.79
57990;BME280;58373;51.824;5.564;2023-08-24T06:53:11;101454.97;;;18.67;95.51
57990;BME280;58373;51.824;5.564;2023-08-24T06:55:36;101454.34;;;18.73;95.63
57990;BME280;58373;51.824;5.564;2023-08-24T06:58:02;101456.66;;;18.76;95.53
57990;BME280;58373;51.824;5.564;2023-08-24T07:00:30;101465.84;;;18.80;95.39
57990;BME280;58373;51.824;5.564;2023-08-24T07:02:55;101470.63;;;18.84;95.64
57990;BME280;58373;51.824;5.564;2023-08-24T07:05:20;101466.50;;;18.90;94.92
57990;BME280;58373;51.824;5.564;2023-08-24T07:07:46;101456.16;;;18.97;94.90
57990;BME280;58373;51.824;5.564;2023-08-24T07:10:12;101451.06;;;19.03;94.73
57990;BME280;58373;51.824;5.564;2023-08-24T07:12:37;101436.28;;;19.10;95.52
57990;BME280;58373;51.824;5.564;2023-08-24T07:15:05;101432.00;;;19.18;94.80
57990;BME280;58373;51.824;5.564;2023-08-24T07:17:31;101434.59;;;19.26;95.18
57990;BME280;58373;51.824;5.564;2023-08-24T07:19:56;101438.88;;;19.35;94.82
57990;BME280;58373;51.824;5.564;2023-08-24T07:22:21;101417.16;;;19.41;94.89
57990;BME280;58373;51.824;5.564;2023-08-24T07:24:46;101419.41;;;19.52;93.56
57990;BME280;58373;51.824;5.564;2023-08-24T07:27:17;101417.09;;;19.57;93.61
57990;BME280;58373;51.824;5.564;2023-08-24T07:29:42;101415.28;;;19.66;93.15
57990;BME280;58373;51.824;5.564;2023-08-24T07:32:07;101418.22;;;19.71;92.36
57990;BME280;58373;51.824;5.564;2023-08-24T07:34:32;101415.72;;;19.78;92.54
57990;BME280;58373;51.824;5.564;2023-08-24T07:36:57;101418.34;;;19.86;92.06
57990;BME280;58373;51.824;5.564;2023-08-24T07:39:23;101414.03;;;19.93;92.01
57990;BME280;58373;51.824;5.564;2023-08-24T07:41:48;101415.63;;;20.02;91.67
57990;BME280;58373;51.824;5.564;2023-08-24T07:44:13;101422.47;;;20.11;90.99
57990;BME280;58373;51.824;5.564;2023-08-24T07:46:38;101419.63;;;20.21;90.70
57990;BME280;58373;51.824;5.564;2023-08-24T07:49:04;101415.97;;;20.30;89.12
57990;BME280;58373;51.824;5.564;2023-08-24T07:51:30;101415.09;;;20.38;88.79
57990;BME280;58373;51.824;5.564;2023-08-24T07:53:55;101421.00;;;20.48;88.44
57990;BME280;58373;51.824;5.564;2023-08-24T07:56:20;101428.81;;;20.56;88.17
57990;BME280;58373;51.824;5.564;2023-08-24T07:58:47;101432.69;;;20.68;88.13
57990;BME280;58373;51.824;5.564;2023-08-24T08:01:13;101443.00;;;20.78;87.79
57990;BME280;58373;51.824;5.564;2023-08-24T08:03:38;101434.19;;;20.86;87.10
57990;BME280;58373;51.824;5.564;2023-08-24T08:06:03;101432.47;;;20.93;86.56
57990;BME280;58373;51.824;5.564;2023-08-24T08:08:29;101441.34;;;21.00;84.73
57990;BME280;58373;51.824;5.564;2023-08-24T08:11:01;101441.63;;;21.05;85.80
57990;BME280;58373;51.824;5.564;2023-08-24T08:13:27;101443.16;;;21.14;85.12
57990;BME280;58373;51.824;5.564;2023-08-24T08:15:52;101433.53;;;21.21;85.33
57990;BME280;58373;51.824;5.564;2023-08-24T08:18:17;101437.56;;;21.32;85.50
57990;BME280;58373;51.824;5.564;2023-08-24T08:20:43;101432.66;;;21.44;84.78
57990;BME280;58373;51.824;5.564;2023-08-24T08:23:08;101430.59;;;21.54;84.64
57990;BME280;58373;51.824;5.564;2023-08-24T08:25:33;101430.13;;;21.65;83.85
57990;BME280;58373;51.824;5.564;2023-08-24T08:27:58;101425.19;;;21.77;84.11
57990;BME280;58373;51.824;5.564;2023-08-24T08:30:23;101439.75;;;21.88;84.15
57990;BME280;58373;51.824;5.564;2023-08-24T08:32:48;101431.72;;;21.96;82.95
57990;BME280;58373;51.824;5.564;2023-08-24T08:35:16;101430.63;;;22.05;82.98
57990;BME280;58373;51.824;5.564;2023-08-24T08:37:41;101419.94;;;22.13;83.21
57990;BME280;58373;51.824;5.564;2023-08-24T08:40:08;101413.31;;;22.17;82.51
57990;BME280;58373;51.824;5.564;2023-08-24T08:42:34;101410.91;;;22.22;82.33
57990;BME280;58373;51.824;5.564;2023-08-24T08:45:00;101395.06;;;22.22;81.34
57990;BME280;58373;51.824;5.564;2023-08-24T08:47:28;101385.75;;;22.26;81.62
57990;BME280;58373;51.824;5.564;2023-08-24T08:49:53;101373.63;;;22.32;81.20
57990;BME280;58373;51.824;5.564;2023-08-24T08:52:20;101370.84;;;22.40;80.31
57990;BME280;58373;51.824;5.564;2023-08-24T08:54:45;101365.13;;;22.37;79.83
57990;BME280;58373;51.824;5.564;2023-08-24T08:57:10;101362.66;;;22.35;78.46
57990;BME280;58373;51.824;5.564;2023-08-24T08:59:35;101350.50;;;22.41;79.55
57990;BME280;58373;51.824;5.564;2023-08-24T09:02:02;101349.31;;;22.43;78.56
57990;BME280;58373;51.824;5.564;2023-08-24T09:04:28;101334.34;;;22.50;79.68
57990;BME280;58373;51.824;5.564;2023-08-24T09:06:54;101330.72;;;22.58;78.80
57990;BME280;58373;51.824;5.564;2023-08-24T09:09:21;101325.44;;;22.58;78.46
57990;BME280;58373;51.824;5.564;2023-08-24T09:11:47;101323.81;;;22.57;77.75
57990;BME280;58373;51.824;5.564;2023-08-24T09:14:13;101321.78;;;22.59;78.09
57990;BME280;58373;51.824;5.564;2023-08-24T09:16:39;101319.00;;;22.67;78.46
57990;BME280;58373;51.824;5.564;2023-08-24T09:19:04;101317.41;;;22.73;78.97
57990;BME280;58373;51.824;5.564;2023-08-24T09:21:30;101313.41;;;22.84;77.67
57990;BME280;58373;51.824;5.564;2023-08-24T09:23:55;101306.09;;;22.86;78.05
57990;BME280;58373;51.824;5.564;2023-08-24T09:26:30;101300.47;;;22.89;77.48
57990;BME280;58373;51.824;5.564;2023-08-24T09:28:56;101302.50;;;22.93;77.23
57990;BME280;58373;51.824;5.564;2023-08-24T09:31:22;101280.16;;;22.96;77.09
57990;BME280;58373;51.824;5.564;2023-08-24T09:33:47;101276.50;;;23.03;77.15
57990;BME280;58373;51.824;5.564;2023-08-24T09:36:13;101272.91;;;23.11;77.00
57990;BME280;58373;51.824;5.564;2023-08-24T09:38:45;101262.13;;;23.13;76.75
57990;BME280;58373;51.824;5.564;2023-08-24T09:41:10;101268.44;;;23.18;76.94
57990;BME280;58373;51.824;5.564;2023-08-24T09:43:35;101262.38;;;23.24;76.96
57990;BME280;58373;51.824;5.564;2023-08-24T09:46:00;101264.44;;;23.29;75.90
57990;BME280;58373;51.824;5.564;2023-08-24T09:48:28;101265.84;;;23.31;75.18
57990;BME280;58373;51.824;5.564;2023-08-24T09:50:53;101281.16;;;23.36;75.94
57990;BME280;58373;51.824;5.564;2023-08-24T09:53:21;101289.53;;;23.46;75.79
57990;BME280;58373;51.824;5.564;2023-08-24T09:56:08;101304.63;;;23.59;75.75
57990;BME280;58373;51.824;5.564;2023-08-24T09:58:32;101322.41;;;23.65;75.30
57990;BME280;58373;51.824;5.564;2023-08-24T10:00:59;101325.66;;;23.67;75.32
57990;BME280;58373;51.824;5.564;2023-08-24T10:03:26;101320.38;;;23.67;75.45
57990;BME280;58373;51.824;5.564;2023-08-24T10:05:52;101319.56;;;23.67;75.36
57990;BME280;58373;51.824;5.564;2023-08-24T10:08:39;101328.09;;;23.62;75.17
57990;BME280;58373;51.824;5.564;2023-08-24T10:11:08;101325.22;;;23.57;74.82
57990;BME280;58373;51.824;5.564;2023-08-24T10:13:44;101325.22;;;23.57;75.53
57990;BME280;58373;51.824;5.564;2023-08-24T10:16:13;101318.69;;;23.53;75.32
57990;BME280;58373;51.824;5.564;2023-08-24T10:18:38;101322.72;;;23.49;75.66
57990;BME280;58373;51.824;5.564;2023-08-24T10:21:04;101318.66;;;23.46;75.72
57990;BME280;58373;51.824;5.564;2023-08-24T10:23:30;101324.13;;;23.45;75.68
57990;BME280;58373;51.824;5.564;2023-08-24T10:25:55;101316.19;;;23.45;75.74
57990;BME280;58373;51.824;5.564;2023-08-24T10:28:20;101317.84;;;23.46;75.94
57990;BME280;58373;51.824;5.564;2023-08-24T10:30:48;101321.09;;;23.48;75.84
57990;BME280;58373;51.824;5.564;2023-08-24T10:33:14;101318.25;;;23.49;75.69
57990;BME280;58373;51.824;5.564;2023-08-24T10:35:40;101316.41;;;23.50;75.69
57990;BME280;58373;51.824;5.564;2023-08-24T10:38:06;101306.47;;;23.52;75.58
57990;BME280;58373;51.824;5.564;2023-08-24T10:40:34;101316.63;;;23.55;75.59
57990;BME280;58373;51.824;5.564;2023-08-24T10:43:03;101311.34;;;23.55;75.49
57990;BME280;58373;51.824;5.564;2023-08-24T10:48:16;101302.81;;;23.59;75.44
57990;BME280;58373;51.824;5.564;2023-08-24T10:50:41;101299.94;;;23.61;75.50
57990;BME280;58373;51.824;5.564;2023-08-24T10:53:06;101289.34;;;23.61;75.48
57990;BME280;58373;51.824;5.564;2023-08-24T10:55:35;101288.38;;;23.62;75.70
57990;BME280;58373;51.824;5.564;2023-08-24T10:58:02;101293.50;;;23.64;75.70
57990;BME280;58373;51.824;5.564;2023-08-24T11:00:28;101287.97;;;23.65;75.79
57990;BME280;58373;51.824;5.564;2023-08-24T11:02:55;101292.25;;;23.66;75.79
57990;BME280;58373;51.824;5.564;2023-08-24T11:08:12;101306.53;;;23.65;75.93
57990;BME280;58373;51.824;5.564;2023-08-24T11:15:36;101298.78;;;23.70;76.37
57990;BME280;58373;51.824;5.564;2023-08-24T11:20:37;101282.50;;;23.73;76.32
57990;BME280;58373;51.824;5.564;2023-08-24T11:23:02;101264.38;;;23.77;76.10
57990;BME280;58373;51.824;5.564;2023-08-24T11:25:27;101246.22;;;23.74;76.45
57990;BME280;58373;51.824;5.564;2023-08-24T11:27:53;101251.34;;;23.75;76.67
57990;BME280;58373;51.824;5.564;2023-08-24T11:30:18;101241.34;;;23.77;76.60
57990;BME280;58373;51.824;5.564;2023-08-24T11:32:44;101237.69;;;23.78;77.03
57990;BME280;58373;51.824;5.564;2023-08-24T11:35:10;101235.84;;;23.79;76.96
57990;BME280;58373;51.824;5.564;2023-08-24T11:37:36;101238.09;;;23.82;77.19
57990;BME280;58373;51.824;5.564;2023-08-24T11:40:01;101238.50;;;23.85;77.08
57990;BME280;58373;51.824;5.564;2023-08-24T11:42:27;101238.69;;;23.91;76.95
57990;BME280;58373;51.824;5.564;2023-08-24T11:45:00;101237.28;;;23.95;76.93
57990;BME280;58373;51.824;5.564;2023-08-24T11:47:25;101229.94;;;23.97;76.68
57990;BME280;58373;51.824;5.564;2023-08-24T11:49:50;101219.75;;;24.00;76.61
57990;BME280;58373;51.824;5.564;2023-08-24T11:52:16;101211.19;;;24.05;77.23
57990;BME280;58373;51.824;5.564;2023-08-24T11:54:42;101209.16;;;24.07;76.77
57990;BME280;58373;51.824;5.564;2023-08-24T11:57:07;101188.97;;;24.06;76.91
57990;BME280;58373;51.824;5.564;2023-08-24T11:59:36;101177.34;;;24.07;76.73
57990;BME280;58373;51.824;5.564;2023-08-24T12:02:01;101172.88;;;24.07;76.58
57990;BME280;58373;51.824;5.564;2023-08-24T12:04:27;101166.75;;;24.07;77.02
57990;BME280;58373;51.824;5.564;2023-08-24T12:06:52;101162.09;;;24.09;77.03
57990;BME280;58373;51.824;5.564;2023-08-24T12:09:17;101162.09;;;24.09;77.07
57990;BME280;58373;51.824;5.564;2023-08-24T12:11:42;101161.84;;;24.17;77.30
57990;BME280;58373;51.824;5.564;2023-08-24T12:14:15;101164.28;;;24.19;77.35
57990;BME280;58373;51.824;5.564;2023-08-24T12:16:41;101159.41;;;24.22;77.47
57990;BME280;58373;51.824;5.564;2023-08-24T12:19:07;101146.34;;;24.27;77.00
57990;BME280;58373;51.824;5.564;2023-08-24T12:21:32;101142.66;;;24.28;76.67
57990;BME280;58373;51.824;5.564;2023-08-24T12:23:58;101142.66;;;24.28;77.04
57990;BME280;58373;51.824;5.564;2023-08-24T12:26:24;101139.00;;;24.29;76.83
57990;BME280;58373;51.824;5.564;2023-08-24T12:28:52;101136.56;;;24.28;77.17
57990;BME280;58373;51.824;5.564;2023-08-24T12:31:18;101130.44;;;24.27;77.34
57990;BME280;58373;51.824;5.564;2023-08-24T12:33:44;101136.34;;;24.29;77.67
57990;BME280;58373;51.824;5.564;2023-08-24T12:36:09;101131.25;;;24.34;77.53
57990;BME280;58373;51.824;5.564;2023-08-24T12:38:35;101115.53;;;24.40;76.56
57990;BME280;58373;51.824;5.564;2023-08-24T12:41:00;101101.84;;;24.43;77.04
57990;BME280;58373;51.824;5.564;2023-08-24T12:43:26;101082.25;;;24.50;77.06
57990;BME280;58373;51.824;5.564;2023-08-24T12:45:51;101073.25;;;24.58;77.03
57990;BME280;58373;51.824;5.564;2023-08-24T12:48:16;101075.25;;;24.62;76.55
57990;BME280;58373;51.824;5.564;2023-08-24T12:50:42;101084.00;;;24.70;75.86
57990;BME280;58373;51.824;5.564;2023-08-24T12:53:07;101092.72;;;24.77;75.48
57990;BME280;58373;51.824;5.564;2023-08-24T12:55:32;101111.09;;;24.78;75.33
57990;BME280;58373;51.824;5.564;2023-08-24T12:57:58;101122.50;;;24.85;75.38
57990;BME280;58373;51.824;5.564;2023-08-24T13:00:23;101119.22;;;24.90;75.23
57990;BME280;58373;51.824;5.564;2023-08-24T13:02:48;101126.53;;;24.95;74.95
57990;BME280;58373;51.824;5.564;2023-08-24T13:05:14;101129.34;;;25.00;74.64